Tokma, Russia
Current Conditions -  °F | °C
As of 12:00 AM on Saturday 25 Oct 2014 (Local Time) from UIBB Reporting Station
Scattered Clouds Scattered Clouds  
Wind Chill:   Ceiling: Unl
Heat Index: 10°   Visibility: 3mi
Dew Point:   Wind: 7mph
Humidity: 85%   Direction: 330°NNW
Pressure: 30.12"   Gusts: NA
Location:  58.25°N, 105.88°E
Report Text: UIBB 241600Z 33003MPS P5000 SCT020CB M12/M14 Q1020 NOSIG RMKQFE722/0963 30492030
Loading
Personal Weather Stations






























Interactive Weather Map
Tropical Storm Tracking
New forecast layout! Learn more

10-Day Weather Forecast

Advertisements
Track Severe Weather on mobile